Time;durP1;ratioP1;P1;durP2;ratioP2;P2;SDS_P1;SDS_P2;PMS_P1;PMS_P2;Temp;Humidity;BMP_temperature;BMP_pressure;BME280_temperature;BME280_humidity;BME280_pressure;Samples;Min_cycle;Max_cycle;Signal;HPM_P1;HPM_P2
2023/06/26 00:03:44;;;;;;;6.57;2.95;;;;;;;19.13;52.56;99795.38;10417496;28;20505;-85
2023/06/26 00:08:46;;;;;;;5.20;2.80;;;;;;;19.04;52.68;99788.31;10383676;28;21023;-85
2023/06/26 00:13:48;;;;;;;5.25;2.65;;;;;;;18.95;53.17;99783.03;10407261;28;20044;-84
2023/06/26 00:18:50;;;;;;;5.18;2.95;;;;;;;18.90;53.28;99791.44;10416088;28;21612;-84
2023/06/26 00:23:52;;;;;;;4.70;2.67;;;;;;;18.79;53.39;99783.66;10401701;28;20090;-84
2023/06/26 00:28:54;;;;;;;4.35;2.45;;;;;;;18.72;53.61;99779.13;10421594;28;20041;-84
2023/06/26 00:33:56;;;;;;;4.65;2.60;;;;;;;18.68;53.50;99778.59;10422239;28;20049;-80
2023/06/26 00:38:59;;;;;;;4.53;2.67;;;;;;;18.38;53.99;99773.56;10414882;28;20044;-80
2023/06/26 00:44:02;;;;;;;4.70;2.60;;;;;;;18.05;54.76;99782.81;10396301;28;20671;-80
2023/06/26 00:49:04;;;;;;;4.22;2.50;;;;;;;18.09;55.00;99778.06;10400577;28;20049;-80
2023/06/26 00:54:06;;;;;;;4.28;2.58;;;;;;;18.07;54.92;99780.00;10397370;28;20120;-81
2023/06/26 00:59:08;;;;;;;4.40;2.40;;;;;;;18.15;54.82;99778.31;10400911;28;20068;-80
2023/06/26 01:04:17;;;;;;;4.68;2.70;;;;;;;18.15;54.58;99775.69;10415569;28;20056;-81
2023/06/26 01:09:20;;;;;;;6.10;2.97;;;;;;;17.97;55.00;99765.97;10397564;28;21029;-80
2023/06/26 01:14:24;;;;;;;5.03;2.88;;;;;;;17.65;55.47;99767.13;10395685;28;20119;-80
2023/06/26 01:19:30;;;;;;;4.57;2.70;;;;;;;17.84;55.74;99769.75;10400517;28;20052;-80
2023/06/26 01:24:36;;;;;;;4.20;2.65;;;;;;;17.95;55.53;99765.28;10392935;28;20049;-80
2023/06/26 01:29:39;;;;;;;4.32;2.58;;;;;;;17.97;55.30;99758.03;10414235;28;20080;-80
2023/06/26 01:34:43;;;;;;;4.30;2.42;;;;;;;17.83;55.61;99752.19;10402863;28;20139;-80
2023/06/26 01:39:45;;;;;;;5.68;2.90;;;;;;;17.74;55.86;99753.06;10401046;28;20051;-80
2023/06/26 01:44:47;;;;;;;5.68;2.90;;;;;;;17.69;56.04;99757.06;10381555;28;20106;-81
2023/06/26 01:50:11;;;;;;;5.18;2.90;;;;;;;17.62;56.32;99748.06;10397630;28;20168;-81
2023/06/26 01:55:37;;;;;;;5.78;2.80;;;;;;;17.59;56.81;99759.75;10409190;28;20056;-81
2023/06/26 02:00:40;;;;;;;5.43;2.80;;;;;;;17.54;55.94;99750.56;10425777;28;20071;-81
2023/06/26 02:05:42;;;;;;;5.10;2.72;;;;;;;17.49;56.10;99745.69;10403734;28;20053;-81
2023/06/26 02:10:45;;;;;;;5.22;2.60;;;;;;;17.40;56.41;99751.00;10396502;28;20041;-81
2023/06/26 02:15:46;;;;;;;5.35;2.97;;;;;;;17.44;56.58;99745.28;10409190;28;20116;-80
2023/06/26 02:20:49;;;;;;;4.90;2.65;;;;;;;17.42;56.44;99747.25;10401999;28;20048;-81
2023/06/26 02:25:51;;;;;;;4.75;2.40;;;;;;;17.32;56.85;99746.38;10387782;28;20493;-81
2023/06/26 02:30:52;;;;;;;5.20;2.80;;;;;;;16.95;57.28;99745.34;10416578;28;20143;-81
2023/06/26 02:35:54;;;;;;;6.28;3.13;;;;;;;17.08;57.26;99745.09;10395444;28;20049;-81
2023/06/26 02:40:56;;;;;;;4.47;2.78;;;;;;;17.08;57.04;99748.56;10416554;28;20097;-81
2023/06/26 02:46:49;;;;;;;5.18;2.85;;;;;;;16.90;58.37;99750.19;10404912;28;20103;-81
2023/06/26 02:51:51;;;;;;;4.35;2.72;;;;;;;16.87;57.62;99753.94;10416642;28;20809;-81
2023/06/26 02:57:03;;;;;;;4.65;2.50;;;;;;;16.96;57.16;99739.91;10399316;28;20045;-81
2023/06/26 03:02:06;;;;;;;5.97;2.95;;;;;;;16.90;57.32;99747.56;10396447;28;20049;-81
2023/06/26 03:07:14;;;;;;;5.63;2.80;;;;;;;16.86;57.42;99744.34;10380911;28;20057;-81
2023/06/26 03:12:16;;;;;;;6.05;3.08;;;;;;;16.89;57.61;99740.63;10390354;28;20056;-81
2023/06/26 03:17:18;;;;;;;5.40;2.90;;;;;;;16.89;57.60;99738.81;10393446;28;20059;-81
2023/06/26 03:22:24;;;;;;;4.32;2.38;;;;;;;16.89;57.42;99740.63;10377011;28;20053;-81
2023/06/26 03:27:26;;;;;;;5.65;3.00;;;;;;;16.94;57.67;99741.03;10395787;28;20076;-81
2023/06/26 03:32:28;;;;;;;6.63;2.92;;;;;;;16.98;57.58;99739.78;10381843;28;20635;-81
2023/06/26 03:37:30;;;;;;;4.60;2.70;;;;;;;16.98;57.29;99737.97;10394837;28;20475;-81
2023/06/26 03:42:32;;;;;;;5.28;2.50;;;;;;;17.04;57.08;99734.78;10394531;28;20041;-81
2023/06/26 03:47:34;;;;;;;5.22;3.00;;;;;;;17.08;56.95;99731.88;10380555;28;20053;-81
2023/06/26 03:52:37;;;;;;;6.75;2.65;;;;;;;17.17;56.87;99731.88;10401783;28;20136;-81
2023/06/26 03:57:38;;;;;;;5.03;2.80;;;;;;;17.17;57.10;99738.97;10378091;28;20049;-81
2023/06/26 04:02:43;;;;;;;5.93;2.60;;;;;;;17.27;56.86;99726.59;10392925;28;20114;-81
2023/06/26 04:07:51;;;;;;;7.05;2.67;;;;;;;17.41;57.13;99729.69;10389484;28;20064;-81
2023/06/26 04:12:53;;;;;;;5.20;2.80;;;;;;;19.04;55.01;99732.66;10407693;28;20068;-81
2023/06/26 04:17:55;;;;;;;5.85;2.75;;;;;;;21.37;50.64;99727.06;10390686;28;20414;-80
2023/06/26 04:22:57;;;;;;;4.25;2.50;;;;;;;23.30;47.22;99727.34;10375855;28;20050;-80
2023/06/26 04:27:59;;;;;;;3.92;2.20;;;;;;;24.97;44.25;99718.81;10369870;28;20065;-81
2023/06/26 04:33:01;;;;;;;5.28;2.55;;;;;;;26.26;42.31;99708.63;10377302;28;20060;-81
2023/06/26 04:38:03;;;;;;;4.47;2.42;;;;;;;27.36;40.18;99700.19;10387636;28;20052;-81
2023/06/26 04:43:05;;;;;;;3.80;2.33;;;;;;;27.94;38.70;99703.13;10395838;28;20076;-81
2023/06/26 04:48:07;;;;;;;6.38;2.63;;;;;;;28.48;37.72;99694.75;10382689;28;20053;-81
2023/06/26 04:53:09;;;;;;;4.60;2.58;;;;;;;29.14;36.41;99709.56;10403418;28;20056;-81
2023/06/26 04:58:11;;;;;;;4.78;2.63;;;;;;;29.75;35.36;99688.19;10385509;28;20446;-81
2023/06/26 05:03:13;;;;;;;4.28;2.60;;;;;;;30.11;34.36;99695.56;10378088;28;20073;-81
2023/06/26 05:08:18;;;;;;;4.18;2.67;;;;;;;30.00;33.66;99691.72;10411181;28;20525;-81
2023/06/26 05:13:20;;;;;;;3.70;2.20;;;;;;;29.99;34.09;99700.03;10378603;28;20136;-81
2023/06/26 05:18:22;;;;;;;4.57;2.65;;;;;;;29.97;33.55;99712.94;10395930;28;20048;-81
2023/06/26 05:23:25;;;;;;;4.50;2.38;;;;;;;30.55;32.61;99711.47;10414316;28;20041;-80
2023/06/26 05:28:30;;;;;;;4.95;2.47;;;;;;;31.92;31.88;99706.81;10387714;28;20045;-81
2023/06/26 05:33:35;;;;;;;3.97;2.30;;;;;;;30.99;31.35;99707.59;10391759;28;20045;-81
2023/06/26 05:38:37;;;;;;;4.20;2.42;;;;;;;28.34;34.41;99718.16;10407786;28;20055;-80
2023/06/26 05:43:39;;;;;;;5.05;2.50;;;;;;;26.03;37.60;99718.78;10382409;28;20487;-80
2023/06/26 05:48:41;;;;;;;4.68;2.60;;;;;;;25.52;38.77;99721.66;10404629;28;20045;-80
2023/06/26 05:53:44;;;;;;;4.45;2.72;;;;;;;24.95;39.50;99712.81;10403497;28;20045;-80
2023/06/26 05:58:47;;;;;;;4.45;2.42;;;;;;;24.76;39.94;99716.06;10382118;28;20061;-80
2023/06/26 06:03:49;;;;;;;5.35;2.80;;;;;;;24.61;40.31;99707.22;10385022;28;20040;-80
2023/06/26 06:08:51;;;;;;;3.90;2.40;;;;;;;24.33;40.80;99706.25;10394457;28;20048;-80
2023/06/26 06:13:53;;;;;;;5.55;2.80;;;;;;;24.21;41.02;99722.72;10387080;28;20041;-80
2023/06/26 06:18:55;;;;;;;4.50;2.72;;;;;;;24.24;41.35;99729.56;10384379;28;20509;-80
2023/06/26 06:23:57;;;;;;;5.47;2.88;;;;;;;24.36;40.98;99728.09;10381300;28;20041;-80
2023/06/26 06:28:59;;;;;;;5.97;3.05;;;;;;;24.55;41.17;99732.03;10379491;28;20049;-80
2023/06/26 06:34:01;;;;;;;5.03;3.00;;;;;;;25.03;40.59;99736.78;10411205;28;20033;-80
2023/06/26 06:39:03;;;;;;;5.13;2.72;;;;;;;25.75;39.77;99734.84;10380976;28;20037;-80
2023/06/26 06:44:05;;;;;;;4.70;2.70;;;;;;;26.36;39.32;99733.25;10384890;28;20168;-80
2023/06/26 06:49:09;;;;;;;4.15;2.63;;;;;;;27.37;38.09;99728.72;10382027;28;20052;-81
2023/06/26 06:54:11;;;;;;;5.72;2.22;;;;;;;27.95;37.99;99731.66;10401316;28;20064;-81
2023/06/26 06:59:13;;;;;;;4.63;2.75;;;;;;;28.03;37.73;99734.13;10389539;28;20429;-81
2023/06/26 07:04:15;;;;;;;3.47;2.25;;;;;;;29.79;35.99;99719.88;10411340;28;20506;-81
2023/06/26 07:09:19;;;;;;;4.40;2.63;;;;;;;30.55;34.26;99720.41;10404033;28;20041;-81
2023/06/26 07:14:21;;;;;;;4.75;2.40;;;;;;;30.87;34.08;99714.81;10402210;28;20306;-81
2023/06/26 07:19:23;;;;;;;3.95;2.28;;;;;;;29.71;34.48;99732.81;10392792;28;20108;-82
2023/06/26 07:24:25;;;;;;;4.38;2.20;;;;;;;30.67;33.41;99726.69;10408656;28;20157;-81
2023/06/26 07:29:29;;;;;;;3.58;2.22;;;;;;;31.75;31.46;99735.59;10366500;28;20106;-81
2023/06/26 07:34:31;;;;;;;3.70;2.10;;;;;;;32.32;31.01;99741.25;10387063;28;20095;-82
2023/06/26 07:39:35;;;;;;;4.63;2.58;;;;;;;32.61;30.17;99741.16;10406935;28;20041;-82
2023/06/26 07:44:37;;;;;;;4.28;2.25;;;;;;;33.15;29.10;99745.22;10384309;28;20045;-82
2023/06/26 07:49:40;;;;;;;3.67;2.10;;;;;;;33.86;27.87;99750.00;10380613;28;20050;-81
2023/06/26 07:54:43;;;;;;;4.65;2.22;;;;;;;34.11;27.91;99747.72;10388612;28;20053;-81
2023/06/26 07:59:46;;;;;;;3.72;2.20;;;;;;;32.88;28.76;99750.34;10378231;28;20053;-81
2023/06/26 08:04:48;;;;;;;3.85;2.10;;;;;;;30.96;30.80;99743.16;10359345;28;20046;-81
2023/06/26 08:09:51;;;;;;;6.18;2.63;;;;;;;29.72;31.99;99753.34;10364062;28;20049;-81
2023/06/26 08:14:53;;;;;;;3.92;2.35;;;;;;;29.10;32.89;99759.50;10355964;28;20046;-81
2023/06/26 08:19:55;;;;;;;3.97;2.40;;;;;;;29.87;32.24;99753.81;10347696;28;20056;-80
2023/06/26 08:24:57;;;;;;;4.28;2.22;;;;;;;30.65;31.44;99745.00;10355960;28;20038;-80
2023/06/26 08:29:59;;;;;;;4.18;2.42;;;;;;;29.52;31.49;99750.78;10354913;28;20460;-80
2023/06/26 08:35:01;;;;;;;5.20;2.20;;;;;;;29.39;31.54;99758.97;10348102;28;20038;-81
2023/06/26 08:40:04;;;;;;;3.55;2.10;;;;;;;29.29;31.74;99776.59;10368496;28;20042;-81
2023/06/26 08:45:06;;;;;;;4.28;2.35;;;;;;;29.31;31.45;99769.97;10369901;28;20438;-81
2023/06/26 08:50:14;;;;;;;4.20;2.40;;;;;;;28.49;32.19;99772.56;10370513;28;20045;-80
2023/06/26 08:55:18;;;;;;;3.17;1.98;;;;;;;28.52;32.58;99777.53;10360855;28;20537;-81
2023/06/26 09:00:20;;;;;;;3.75;2.15;;;;;;;30.75;30.75;99771.47;10383198;28;20180;-81
2023/06/26 09:05:22;;;;;;;3.50;2.00;;;;;;;31.54;30.11;99771.28;10393489;28;20040;-82
2023/06/26 09:10:24;;;;;;;3.55;1.95;;;;;;;31.56;29.68;99763.75;10407230;28;20049;-82
2023/06/26 09:15:28;;;;;;;3.65;2.10;;;;;;;31.94;29.19;99772.31;10409557;28;20048;-82
2023/06/26 09:20:33;;;;;;;3.78;2.45;;;;;;;32.39;28.87;99779.88;10391824;28;20681;-81
2023/06/26 09:25:39;;;;;;;3.40;2.00;;;;;;;32.67;27.41;99790.81;10413788;28;20041;-80
2023/06/26 09:30:48;;;;;;;3.05;1.70;;;;;;;32.84;27.53;99789.03;10391618;28;20054;-81
2023/06/26 09:35:57;;;;;;;3.00;1.73;;;;;;;32.16;27.97;99789.66;10413305;28;20041;-81
2023/06/26 09:40:59;;;;;;;3.60;1.90;;;;;;;31.64;28.85;99803.97;10401565;28;20053;-81
2023/06/26 09:46:02;;;;;;;3.33;1.90;;;;;;;31.95;28.66;99811.81;10394329;28;20042;-81
2023/06/26 09:51:04;;;;;;;4.63;1.83;;;;;;;31.93;28.65;99807.69;10417472;28;20063;-81
2023/06/26 09:56:18;;;;;;;2.60;1.70;;;;;;;31.45;29.66;99803.19;10382277;28;20053;-81
2023/06/26 10:01:21;;;;;;;2.97;1.58;;;;;;;31.77;28.95;99802.97;10396254;28;20391;-81
2023/06/26 10:06:33;;;;;;;3.45;1.80;;;;;;;31.17;29.27;99792.16;10388824;28;20053;-81
2023/06/26 10:11:40;;;;;;;4.00;1.77;;;;;;;31.42;29.79;99794.72;10388534;28;20495;-81
2023/06/26 10:19:44;;;;;;;4.53;1.70;;;;;;;31.30;29.52;99804.66;10498530;27;21048;-60
2023/06/26 10:24:49;;;;;;;3.38;1.65;;;;;;;31.23;29.74;99790.44;10489056;28;20175;-60
2023/06/26 10:29:55;;;;;;;3.78;1.85;;;;;;;30.93;30.10;99798.44;10492466;28;20048;-60
2023/06/26 10:34:59;;;;;;;3.35;1.80;;;;;;;31.17;30.00;99804.84;10483420;28;20499;-60
2023/06/26 10:40:01;;;;;;;4.57;2.20;;;;;;;30.95;30.36;99804.44;10488174;28;20186;-60
2023/06/26 10:45:17;;;;;;;2.70;1.80;;;;;;;30.42;30.63;99806.88;10488417;28;20047;-60
2023/06/26 10:50:25;;;;;;;2.95;1.77;;;;;;;29.55;31.79;99820.44;10494466;28;20117;-60
2023/06/26 10:55:28;;;;;;;3.00;1.80;;;;;;;29.41;31.73;99828.78;10491509;28;20042;-60
2023/06/26 11:00:31;;;;;;;3.67;2.00;;;;;;;28.99;32.09;99836.41;10477890;28;20048;-59
2023/06/26 11:05:34;;;;;;;4.07;2.00;;;;;;;29.38;32.78;99835.41;10493149;28;20526;-60
2023/06/26 11:10:53;;;;;;;4.85;1.83;;;;;;;29.31;32.27;99826.53;10498086;28;20190;-59
2023/06/26 11:15:57;;;;;;;3.13;1.75;;;;;;;29.27;32.23;99833.41;10493279;28;20121;-60
2023/06/26 11:21:09;;;;;;;3.70;1.80;;;;;;;29.13;31.77;99844.44;10496322;28;20657;-60
2023/06/26 11:26:21;;;;;;;3.28;1.70;;;;;;;28.26;33.46;99847.44;10489373;28;20054;-60
2023/06/26 11:31:30;;;;;;;4.13;1.75;;;;;;;28.15;34.14;99858.84;10466617;28;20102;-60
2023/06/26 11:36:36;;;;;;;3.95;1.83;;;;;;;27.98;33.72;99857.59;10459744;28;20135;-61
2023/06/26 11:41:40;;;;;;;4.32;1.88;;;;;;;27.94;34.04;99865.25;10464944;28;20131;-61
2023/06/26 11:46:43;;;;;;;6.25;1.77;;;;;;;28.17;33.99;99860.31;10462795;28;20053;-61
2023/06/26 11:51:46;;;;;;;2.75;1.60;;;;;;;28.44;33.29;99866.50;10460304;28;20616;-60
2023/06/26 11:56:53;;;;;;;3.08;1.60;;;;;;;28.42;32.86;99868.56;10449631;28;20056;-60
2023/06/26 12:01:55;;;;;;;3.70;1.55;;;;;;;28.57;33.19;99871.88;10455316;28;20938;-62
2023/06/26 12:06:58;;;;;;;3.20;1.60;;;;;;;28.67;32.73;99866.06;10455887;28;20087;-61
2023/06/26 12:12:01;;;;;;;2.85;1.60;;;;;;;28.16;32.48;99868.56;10463808;28;20058;-60
2023/06/26 12:17:11;;;;;;;2.60;1.58;;;;;;;28.08;32.85;99871.44;10460841;28;20057;-60
2023/06/26 12:22:14;;;;;;;2.78;1.50;;;;;;;28.04;32.40;99871.03;10457853;28;20146;-60
2023/06/26 12:27:18;;;;;;;4.63;1.73;;;;;;;27.90;32.57;99873.91;10449438;28;20040;-60
2023/06/26 12:32:25;;;;;;;1.90;1.38;;;;;;;27.85;31.81;99879.09;10458719;28;20049;-60
2023/06/26 12:37:28;;;;;;;2.90;1.40;;;;;;;28.01;31.83;99881.38;10461070;28;20056;-60
2023/06/26 12:42:33;;;;;;;4.70;1.55;;;;;;;28.07;31.84;99875.19;10464892;28;20068;-61
2023/06/26 12:47:38;;;;;;;2.95;1.30;;;;;;;28.26;31.57;99885.94;10465592;28;20048;-60
2023/06/26 12:52:40;;;;;;;2.65;1.30;;;;;;;28.56;30.60;99881.00;10462030;28;20033;-60
2023/06/26 12:57:42;;;;;;;2.47;1.30;;;;;;;28.60;29.83;99871.47;10462116;28;20080;-61
2023/06/26 13:02:44;;;;;;;3.50;1.20;;;;;;;28.24;30.09;99879.09;10465037;28;20050;-61
2023/06/26 13:07:46;;;;;;;1.90;1.20;;;;;;;28.37;29.47;99881.84;10458266;28;20171;-61
2023/06/26 13:12:48;;;;;;;1.60;1.10;;;;;;;28.57;29.24;99876.44;10465138;28;20044;-61
2023/06/26 13:17:50;;;;;;;2.55;1.38;;;;;;;28.62;29.14;99872.09;10458853;28;20040;-61
2023/06/26 13:22:53;;;;;;;4.35;1.17;;;;;;;28.68;29.08;99884.72;10464429;28;20036;-60
2023/06/26 13:27:55;;;;;;;1.25;1.00;;;;;;;28.54;28.58;99879.56;10463517;28;20131;-60
2023/06/26 13:32:57;;;;;;;1.40;1.10;;;;;;;27.95;29.18;99903.72;10462520;28;20163;-60
2023/06/26 13:37:59;;;;;;;1.98;0.95;;;;;;;27.95;28.71;99904.50;10457975;28;20052;-63
2023/06/26 13:43:01;;;;;;;2.35;1.10;;;;;;;27.82;28.70;99925.19;10462033;28;20103;-60
2023/06/26 13:48:04;;;;;;;2.70;1.30;;;;;;;28.01;28.11;99929.78;10462101;28;20058;-60
2023/06/26 13:53:06;;;;;;;2.28;1.20;;;;;;;28.26;28.30;99922.75;10463732;28;20040;-60
2023/06/26 13:58:09;;;;;;;1.63;1.10;;;;;;;28.19;27.75;99911.19;10461322;28;20179;-60
2023/06/26 14:03:11;;;;;;;2.30;1.17;;;;;;;28.12;27.85;99918.41;10463617;28;20130;-60
2023/06/26 14:08:13;;;;;;;1.98;1.05;;;;;;;27.79;28.12;99914.84;10458191;28;20135;-60
2023/06/26 14:13:16;;;;;;;3.00;1.27;;;;;;;27.54;27.59;99919.06;10444789;28;20764;-60
2023/06/26 14:18:18;;;;;;;3.25;1.10;;;;;;;27.79;27.80;99934.47;10458103;28;20061;-60
2023/06/26 14:23:20;;;;;;;2.20;1.02;;;;;;;28.07;27.51;99923.59;10463632;28;20139;-60
2023/06/26 14:28:22;;;;;;;1.10;0.98;;;;;;;28.03;27.21;99935.78;10460990;28;20052;-60
2023/06/26 14:33:25;;;;;;;2.25;0.90;;;;;;;27.39;27.76;99930.78;10461730;28;21190;-60
2023/06/26 14:38:27;;;;;;;2.05;1.10;;;;;;;27.39;27.95;99944.22;10456333;28;20106;-60
2023/06/26 14:43:29;;;;;;;1.15;0.98;;;;;;;27.44;27.69;99944.44;10479866;28;20045;-60
2023/06/26 14:48:31;;;;;;;1.70;1.02;;;;;;;26.88;27.93;99950.91;10439585;28;20052;-60
2023/06/26 14:53:33;;;;;;;1.42;0.98;;;;;;;26.62;27.91;99934.59;10459165;28;20044;-60
2023/06/26 14:58:36;;;;;;;2.38;1.10;;;;;;;26.79;27.46;99941.34;10457246;28;20052;-60
2023/06/26 15:03:38;;;;;;;1.98;1.15;;;;;;;27.10;27.58;99943.59;10464902;28;20514;-60
2023/06/26 15:08:40;;;;;;;1.50;1.00;;;;;;;27.23;27.54;99951.75;10449484;28;20091;-60
2023/06/26 15:13:43;;;;;;;3.28;1.20;;;;;;;27.28;26.97;99952.00;10468529;28;20135;-59
2023/06/26 15:18:46;;;;;;;3.35;0.90;;;;;;;27.36;27.13;99946.47;10466795;28;20048;-60
2023/06/26 15:23:50;;;;;;;2.08;1.02;;;;;;;27.18;27.15;99949.66;10465823;28;20131;-60
2023/06/26 15:28:54;;;;;;;2.20;1.25;;;;;;;26.95;26.64;99948.25;10466402;28;20942;-60
2023/06/26 15:33:56;;;;;;;1.50;0.95;;;;;;;27.06;26.60;99942.31;10467570;28;20102;-60
2023/06/26 15:38:58;;;;;;;2.67;1.10;;;;;;;27.10;26.61;99941.75;10464777;28;20144;-60
2023/06/26 15:44:00;;;;;;;2.72;1.10;;;;;;;27.06;26.46;99951.22;10462997;28;20037;-60
2023/06/26 15:49:03;;;;;;;2.95;1.20;;;;;;;26.99;27.00;99958.41;10463175;28;20049;-60
2023/06/26 15:54:07;;;;;;;1.63;1.00;;;;;;;26.92;27.33;99949.47;10465608;28;20044;-60
2023/06/26 15:59:09;;;;;;;1.98;0.85;;;;;;;26.96;27.17;99940.00;10462896;28;20118;-60
2023/06/26 16:04:12;;;;;;;2.28;1.10;;;;;;;26.51;27.47;99962.75;10461901;28;20052;-60
2023/06/26 16:09:15;;;;;;;1.85;0.95;;;;;;;26.11;27.16;99971.44;10461742;28;20033;-60
2023/06/26 16:14:17;;;;;;;2.33;0.98;;;;;;;26.07;27.99;99963.97;10460716;28;20098;-60
2023/06/26 16:19:20;;;;;;;2.72;0.90;;;;;;;26.01;28.45;99978.13;10463630;28;20123;-60
2023/06/26 16:24:22;;;;;;;2.53;1.08;;;;;;;25.89;29.08;99973.22;10461121;28;20037;-60
2023/06/26 16:29:24;;;;;;;2.97;0.90;;;;;;;25.86;29.33;99980.81;10462151;28;20060;-60
2023/06/26 16:34:27;;;;;;;1.48;0.90;;;;;;;25.85;29.40;99976.47;10459704;28;20165;-60
2023/06/26 16:39:29;;;;;;;1.70;1.23;;;;;;;25.53;29.90;99972.38;10464291;28;20076;-60
2023/06/26 16:44:31;;;;;;;1.92;0.98;;;;;;;25.47;29.57;99977.63;10458646;28;20049;-60
2023/06/26 16:49:33;;;;;;;1.58;0.90;;;;;;;25.34;29.83;100004.25;10465404;28;20083;-60
2023/06/26 16:54:36;;;;;;;1.90;1.13;;;;;;;25.37;29.37;99998.50;10459974;28;20110;-60
2023/06/26 16:59:38;;;;;;;1.58;0.88;;;;;;;25.26;29.69;100002.47;10464252;28;20417;-60
2023/06/26 17:04:40;;;;;;;2.42;1.00;;;;;;;25.19;29.60;100000.69;10461299;28;20083;-60
2023/06/26 17:09:42;;;;;;;3.55;1.10;;;;;;;25.18;29.60;100010.59;10446230;28;20051;-60
2023/06/26 17:14:44;;;;;;;1.73;1.10;;;;;;;25.08;29.48;100000.13;10460197;28;20119;-60
2023/06/26 17:19:46;;;;;;;1.48;0.90;;;;;;;24.89;29.97;100018.56;10464367;28;20174;-62
2023/06/26 17:24:48;;;;;;;3.40;0.82;;;;;;;24.76;29.72;100023.69;10460904;28;20044;-61
2023/06/26 17:29:50;;;;;;;2.65;0.98;;;;;;;24.71;29.92;100023.38;10465695;28;20048;-61
2023/06/26 17:34:53;;;;;;;1.88;0.90;;;;;;;24.55;30.00;100026.97;10462756;28;20036;-61
2023/06/26 17:39:55;;;;;;;2.47;1.10;;;;;;;24.22;30.36;100030.91;10465423;28;20110;-61
2023/06/26 17:44:57;;;;;;;3.33;1.10;;;;;;;23.90;30.66;100042.56;10461960;28;20057;-61
2023/06/26 17:49:59;;;;;;;2.20;0.95;;;;;;;23.67;31.22;100033.66;10466207;28;20060;-61
2023/06/26 17:55:01;;;;;;;1.92;0.90;;;;;;;23.75;31.36;100052.31;10457451;28;20478;-61
2023/06/26 18:00:06;;;;;;;3.75;1.10;;;;;;;23.66;31.35;100057.84;10464667;28;20926;-61
2023/06/26 18:05:12;;;;;;;2.03;1.00;;;;;;;23.69;31.10;100068.19;10462209;28;20405;-61
2023/06/26 18:10:14;;;;;;;1.85;1.00;;;;;;;23.68;31.53;100075.38;10461739;28;20127;-61
2023/06/26 18:15:16;;;;;;;1.55;0.90;;;;;;;23.53;31.77;100082.44;10458710;28;20063;-61
2023/06/26 18:20:18;;;;;;;1.42;0.90;;;;;;;23.20;31.98;100086.13;10455444;28;20106;-61
2023/06/26 18:25:22;;;;;;;1.67;1.00;;;;;;;23.30;31.87;100079.63;10459406;28;20045;-61
2023/06/26 18:30:24;;;;;;;1.00;0.82;;;;;;;23.08;31.98;100079.47;10458767;28;20044;-61
2023/06/26 18:35:26;;;;;;;3.08;1.00;;;;;;;23.02;31.84;100081.00;10452779;28;20079;-59
2023/06/26 18:40:29;;;;;;;2.38;1.20;;;;;;;23.02;32.06;100091.66;10468916;28;20131;-61
2023/06/26 18:45:32;;;;;;;2.05;0.63;;;;;;;22.98;32.11;100097.50;10463316;28;20569;-60
2023/06/26 18:50:34;;;;;;;1.27;0.80;;;;;;;22.74;32.23;100095.63;10466934;28;20106;-60
2023/06/26 18:55:36;;;;;;;0.82;0.68;;;;;;;22.65;32.25;100091.25;10464148;28;20093;-62
2023/06/26 19:00:38;;;;;;;2.30;1.00;;;;;;;22.62;32.31;100092.41;10469155;28;20983;-62
2023/06/26 19:05:40;;;;;;;1.10;0.82;;;;;;;22.58;32.25;100106.25;10468683;28;20150;-60
2023/06/26 19:10:45;;;;;;;1.63;0.80;;;;;;;22.47;32.68;100119.91;10468534;28;20110;-60
2023/06/26 19:15:48;;;;;;;1.20;0.90;;;;;;;22.32;32.68;100122.34;10468679;28;20652;-60
2023/06/26 19:20:50;;;;;;;1.45;0.98;;;;;;;22.20;33.08;100131.63;10465763;28;20621;-60
2023/06/26 19:25:52;;;;;;;4.25;1.27;;;;;;;22.19;33.18;100135.28;10465999;28;20126;-60
2023/06/26 19:30:54;;;;;;;1.00;0.85;;;;;;;22.01;33.23;100137.16;10465358;28;20408;-60
2023/06/26 19:35:57;;;;;;;0.90;0.77;;;;;;;21.87;33.37;100135.94;10466430;28;20053;-60
2023/06/26 19:40:59;;;;;;;1.45;1.00;;;;;;;21.84;33.64;100140.75;10468835;28;20060;-61
2023/06/26 19:46:01;;;;;;;1.77;1.10;;;;;;;21.77;33.96;100145.03;10466646;28;20486;-60
2023/06/26 19:51:04;;;;;;;4.40;1.00;;;;;;;21.66;33.91;100151.47;10464000;28;20048;-61
2023/06/26 19:56:06;;;;;;;1.38;0.85;;;;;;;21.53;34.22;100164.38;10465737;28;20048;-60
2023/06/26 20:01:08;;;;;;;2.40;1.20;;;;;;;21.53;34.10;100166.19;10468704;28;20039;-60
2023/06/26 20:06:10;;;;;;;2.05;1.00;;;;;;;21.37;34.67;100166.06;10471099;28;20143;-60
2023/06/26 20:11:12;;;;;;;0.82;0.75;;;;;;;21.31;34.72;100174.63;10470179;28;20057;-60
2023/06/26 20:16:14;;;;;;;1.35;0.90;;;;;;;21.25;34.86;100181.41;10470037;28;20060;-61
2023/06/26 20:21:16;;;;;;;1.45;1.00;;;;;;;21.16;35.11;100184.13;10471181;28;20147;-60
2023/06/26 20:26:18;;;;;;;2.42;1.02;;;;;;;21.02;35.22;100191.69;10470122;28;20036;-60
2023/06/26 20:31:20;;;;;;;2.30;0.93;;;;;;;20.88;35.48;100194.88;10469743;28;20167;-60
2023/06/26 20:36:23;;;;;;;1.70;1.00;;;;;;;20.87;35.69;100197.66;10470328;28;20530;-60
2023/06/26 20:41:25;;;;;;;1.88;0.90;;;;;;;20.79;35.96;100194.91;10472186;28;20044;-60
2023/06/26 20:46:31;;;;;;;1.73;0.93;;;;;;;20.72;35.87;100201.84;10468229;28;20510;-60
2023/06/26 20:51:34;;;;;;;1.25;0.95;;;;;;;20.61;36.03;100212.66;10470677;28;20117;-60
2023/06/26 20:56:37;;;;;;;1.38;0.90;;;;;;;20.56;36.06;100223.69;10467949;28;20055;-60
2023/06/26 21:01:39;;;;;;;1.35;0.90;;;;;;;20.51;36.35;100225.97;10459789;28;20133;-61
2023/06/26 21:06:42;;;;;;;1.20;0.80;;;;;;;20.45;36.54;100221.25;10442345;28;20048;-60
2023/06/26 21:11:44;;;;;;;1.10;0.90;;;;;;;20.33;36.82;100225.09;10462606;28;20054;-61
2023/06/26 21:16:47;;;;;;;2.85;0.93;;;;;;;20.33;37.20;100226.91;10462778;28;20484;-61
2023/06/26 21:21:49;;;;;;;1.35;1.00;;;;;;;20.24;37.37;100228.59;10464423;28;20512;-61
2023/06/26 21:26:52;;;;;;;1.73;0.80;;;;;;;20.15;37.20;100240.94;10466646;28;20062;-60
2023/06/26 21:31:54;;;;;;;1.35;0.88;;;;;;;20.03;37.79;100243.94;10461130;28;20041;-61
2023/06/26 21:36:56;;;;;;;1.23;0.80;;;;;;;19.92;37.95;100249.41;10460856;28;20051;-61
2023/06/26 21:41:58;;;;;;;1.42;1.00;;;;;;;19.74;38.16;100259.03;10458273;28;20053;-62
2023/06/26 21:47:00;;;;;;;1.52;0.90;;;;;;;19.69;38.43;100263.91;10462692;28;20044;-61
2023/06/26 21:52:03;;;;;;;1.17;0.80;;;;;;;19.65;38.36;100265.19;10443977;28;20287;-61
2023/06/26 21:57:05;;;;;;;1.67;0.88;;;;;;;19.56;38.47;100268.69;10458681;28;20044;-61
2023/06/26 22:02:07;;;;;;;1.40;0.85;;;;;;;19.48;38.70;100276.53;10457623;28;20186;-61
2023/06/26 22:07:09;;;;;;;1.30;0.80;;;;;;;19.40;38.84;100278.03;10457531;28;20045;-61
2023/06/26 22:12:11;;;;;;;1.42;0.90;;;;;;;19.37;39.13;100277.50;10457146;28;20064;-61
2023/06/26 22:17:13;;;;;;;2.20;0.98;;;;;;;19.33;39.24;100282.25;10449511;28;20056;-61
2023/06/26 22:22:15;;;;;;;1.35;0.90;;;;;;;19.21;39.75;100286.00;10467696;28;20151;-61
2023/06/26 22:27:18;;;;;;;1.42;0.93;;;;;;;19.05;39.96;100280.41;10466526;28;20389;-61
2023/06/26 22:32:20;;;;;;;2.03;1.00;;;;;;;19.03;40.09;100290.28;10453143;28;20080;-61
2023/06/26 22:37:22;;;;;;;1.63;0.95;;;;;;;19.01;40.08;100288.72;10466357;28;20941;-60
2023/06/26 22:42:24;;;;;;;2.63;1.20;;;;;;;18.93;40.34;100296.53;10467298;28;20060;-61
2023/06/26 22:47:26;;;;;;;3.65;1.10;;;;;;;18.78;40.50;100295.22;10465211;28;20098;-61
2023/06/26 22:52:29;;;;;;;2.38;1.30;;;;;;;18.64;41.00;100289.34;10466131;28;20041;-61
2023/06/26 22:57:32;;;;;;;1.55;1.10;;;;;;;18.57;41.33;100298.78;10467738;28;20044;-60
2023/06/26 23:02:34;;;;;;;2.08;1.20;;;;;;;18.46;41.66;100287.44;10467331;28;20071;-61
2023/06/26 23:07:37;;;;;;;2.50;1.23;;;;;;;18.35;41.92;100293.66;10465812;28;20090;-60
2023/06/26 23:12:39;;;;;;;2.53;1.10;;;;;;;18.30;42.17;100290.56;10466550;28;20051;-61
2023/06/26 23:17:41;;;;;;;5.10;1.10;;;;;;;18.19;41.94;100300.38;10466655;28;20426;-61
2023/06/26 23:22:44;;;;;;;1.13;0.98;;;;;;;18.14;42.25;100303.41;10466143;28;20037;-61
2023/06/26 23:27:46;;;;;;;1.13;0.90;;;;;;;18.13;42.52;100296.44;10472641;28;20056;-61